Date,TemperatureHighF,TemperatureAvgF,TemperatureLowF,DewpointHighF,DewpointAvgF,DewpointLowF,HumidityHigh,HumidityAvg,HumidityLow,PressureMaxIn,PressureMinIn,WindSpeedMaxMPH,WindSpeedAvgMPH,GustSpeedMaxMPH,PrecipitationSumIn
2013-1-1,37.7,32.1,23.8,35.9,29.7,20.3,94,90,84,30.30,30.04,14,5,14,0.00
2013-1-2,39.8,27.7,17.4,28.9,22.6,14.7,91,81,64,30.33,30.21,16,2,16,0.00
2013-1-3,45.1,31.5,21.8,32.2,24.5,19.1,92,77,46,30.48,30.32,11,1,11,0.00
2013-1-4,47.5,32.7,18.8,31.3,23.0,15.8,91,70,44,30.50,30.33,18,3,18,0.01
2013-1-5,49.2,40.1,30.3,34.3,30.8,25.0,86,70,55,30.33,30.16,23,5,23,0.00
2013-1-6,49.7,36.1,26.8,27.6,23.2,18.8,86,62,36,30.43,30.27,15,2,15,0.00
2013-1-7,27.5,25.7,23.7,19.9,18.5,17.0,79,74,71,30.35,30.30,0,0,1,0.00
2013-1-8,56.5,42.7,29.0,44.2,34.5,22.9,92,74,51,30.17,30.02,14,3,21,0.06
2013-1-9,52.6,48.6,45.5,47.4,45.0,42.7,94,88,72,30.30,30.12,13,6,19,0.11
2013-1-10,57.1,51.3,48.2,53.7,48.8,45.1,94,91,77,30.11,29.78,14,8,23,0.18
2013-1-11,69.1,56.5,45.0,50.9,46.3,42.7,93,70,47,29.84,29.65,20,11,31,0.00
2013-1-12,60.3,39.8,26.1,52.0,30.3,21.4,88,71,39,30.08,29.74,30,7,30,0.22
2013-1-13,31.4,24.5,19.3,21.3,16.5,12.8,82,72,54,30.41,29.98,20,3,20,0.00
2013-1-14,34.2,25.1,17.7,17.3,15.3,12.9,83,67,45,30.51,30.34,17,5,17,0.00
2013-1-15,34.4,26.3,19.5,21.4,16.6,13.3,86,68,46,30.35,30.20,16,4,16,0.00
2013-1-16,48.0,30.9,16.1,23.0,17.2,10.9,81,59,35,30.25,30.12,15,2,15,0.03
2013-1-17,53.6,39.5,26.7,33.2,27.0,18.5,80,62,41,30.49,30.22,23,4,23,0.00
2013-1-18,57.6,42.8,27.4,34.2,29.8,22.8,85,63,39,30.50,30.18,30,8,30,0.00
2013-1-19,66.6,51.7,40.9,39.3,35.7,32.6,73,56,35,30.18,30.05,24,6,24,0.00
2013-1-20,64.4,46.5,32.6,44.1,33.7,19.0,80,62,42,30.27,30.08,24,5,24,0.00
2013-1-21,40.7,30.9,22.4,19.2,16.0,13.1,71,55,37,30.42,30.26,19,6,19,0.00
2013-1-22,54.4,36.0,20.1,31.9,23.8,14.6,82,63,41,30.32,30.17,22,4,24,0.00
2013-1-23,65.0,44.2,27.8,47.8,35.3,23.3,86,72,50,30.25,30.10,13,3,13,0.00
2013-1-24,46.9,40.5,35.6,40.3,27.1,23.5,78,59,48,30.24,30.08,21,8,21,0.00
2013-1-25,46.3,37.9,28.7,32.0,27.4,22.2,80,66,54,30.25,30.11,13,2,13,0.00
2013-1-26,51.0,41.8,29.9,38.5,32.1,24.5,87,69,52,30.25,30.08,17,5,17,0.00
2013-1-27,60.4,53.5,45.3,56.6,50.1,37.3,94,88,72,30.08,29.85,29,11,35,0.02
2013-1-28,75.2,68.2,60.5,63.0,61.6,56.6,88,80,65,29.90,29.70,33,15,33,0.00
2013-1-29,71.8,59.2,41.5,63.5,54.5,38.5,94,85,64,29.70,29.37,36,10,36,0.94
2013-1-30,41.9,36.4,25.8,38.7,28.2,21.9,91,73,55,30.07,29.57,34,11,34,0.01
2013-1-31,56.3,33.4,23.0,30.7,22.3,11.9,86,67,28,30.46,30.02,24,6,27,0.00
2013-2-1,44.9,28.9,15.9,22.7,14.8,6.3,75,57,36,30.47,30.16,20,5,20,0.00
2013-2-2,58.2,41.2,25.5,34.0,28.0,19.8,82,61,37,30.29,30.17,17,3,17,0.00
2013-2-3,58.0,47.0,36.1,31.6,28.8,26.0,75,51,31,30.31,29.92,16,4,16,0.00
2013-2-4,68.0,55.4,41.4,42.5,35.5,31.1,70,48,29,29.92,29.78,21,6,21,0.00
2013-2-5,70.1,48.9,32.2,43.7,35.1,28.6,89,63,28,30.03,29.88,10,1,10,0.00
2013-2-6,63.9,51.6,36.8,53.0,43.4,32.4,90,74,54,30.03,29.86,26,8,26,0.00
2013-2-7,61.8,52.5,42.2,56.3,48.5,36.7,91,86,79,30.12,29.80,24,7,24,0.10
2013-2-8,49.4,40.0,33.9,36.7,32.8,30.4,89,76,56,30.32,30.11,20,5,20,0.00
2013-2-9,46.1,40.8,36.0,44.4,36.3,31.0,94,84,77,30.16,29.73,23,10,23,0.23
2013-2-10,61.3,52.5,41.9,51.0,37.6,26.9,94,61,32,30.04,29.61,27,11,27,0.16
2013-2-11,52.3,41.6,32.0,28.4,25.9,24.1,73,55,35,30.22,30.03,21,4,21,0.00
2013-2-12,39.9,36.5,32.1,36.7,31.1,25.0,93,81,63,30.11,29.94,16,5,16,0.32
2013-2-13,55.2,41.3,34.3,38.1,33.2,28.9,93,75,45,30.07,29.95,11,6,17,0.01
2013-2-14,59.5,45.4,32.0,36.6,31.5,25.6,79,60,41,30.21,29.97,25,5,25,0.00
2013-2-15,43.2,36.5,27.9,35.0,21.3,14.4,78,56,31,30.39,30.20,20,6,22,0.00
2013-2-16,45.9,35.7,24.3,27.8,19.8,14.7,77,54,33,30.40,30.07,24,5,24,0.00
2013-2-17,68.6,52.5,36.0,37.2,31.8,23.3,71,48,27,30.08,29.73,35,12,35,0.00
2013-2-18,61.2,53.6,38.3,51.5,39.0,25.5,76,58,42,30.14,29.60,40,16,40,0.00
2013-2-19,50.9,38.6,25.8,27.4,24.2,20.0,82,58,36,30.34,30.13,14,2,15,0.00
2013-2-20,39.4,34.3,31.2,31.2,28.6,23.4,93,81,53,30.26,29.98,15,7,17,0.44
2013-2-21,36.2,32.4,26.6,34.5,29.9,20.3,94,91,76,29.99,29.68,25,4,25,0.28
2013-2-22,39.5,28.8,20.4,22.9,19.6,16.0,84,69,49,30.17,29.97,22,5,22,0.00
2013-2-23,46.4,32.1,19.3,25.3,21.1,15.5,92,66,42,30.14,29.95,12,1,12,0.00
2013-2-24,61.2,44.9,27.6,39.3,32.3,21.5,80,63,40,29.97,29.73,28,8,28,0.00
2013-2-25,47.1,39.1,32.3,37.0,34.6,30.2,93,84,62,29.79,29.44,29,11,30,1.29
2013-2-26,43.9,37.1,31.7,34.7,31.8,26.8,93,81,67,29.92,29.48,30,11,30,0.13
2013-2-27,46.9,36.2,29.5,32.6,27.9,25.4,92,73,48,30.17,29.91,30,9,30,0.00
2013-2-28,48.1,37.2,29.2,31.1,28.0,25.0,85,70,49,30.23,30.16,17,7,19,0.00
2013-3-1,42.7,35.7,30.5,28.6,24.5,16.6,81,64,53,30.33,30.20,24,9,24,0.00
2013-3-2,47.9,35.1,22.5,23.9,20.3,17.1,82,56,36,30.40,30.19,20,5,20,0.00
2013-3-3,64.6,47.7,30.1,35.8,28.8,20.5,69,50,33,30.19,29.65,28,8,28,0.00
2013-3-4,74.7,59.4,44.9,43.4,40.4,34.2,71,51,30,29.94,29.52,30,9,30,0.00
2013-3-5,49.0,40.7,33.0,35.2,25.8,19.7,86,57,35,30.37,29.94,30,12,30,0.15
2013-3-6,50.6,37.6,24.1,29.2,22.5,17.4,78,56,32,30.46,30.20,14,2,15,0.00
2013-3-7,66.7,51.3,34.0,34.0,30.1,26.1,73,47,28,30.23,30.05,30,9,30,0.00
2013-3-8,58.0,52.1,45.0,44.6,37.5,32.1,76,58,46,30.16,29.94,27,11,27,0.00
2013-3-9,63.2,58.8,54.3,57.1,50.4,37.9,93,75,46,29.94,29.60,33,10,33,0.43
2013-3-10,54.6,42.1,32.5,51.9,36.3,24.5,93,80,71,30.04,29.58,29,12,29,0.02
2013-3-11,52.7,38.2,25.7,25.7,22.4,17.4,87,57,25,30.06,29.96,26,6,26,0.00
2013-3-12,59.0,45.4,32.5,40.0,30.1,20.3,78,56,32,30.34,30.02,18,4,18,0.00
2013-3-13,56.7,43.1,28.9,29.4,25.0,21.3,82,51,31,30.47,30.32,14,3,14,0.00
2013-3-14,45.3,43.5,42.3,26.7,26.3,25.9,53,50,48,30.33,30.27,10,3,10,0.00
2013-3-15,82.8,67.0,51.4,51.5,46.8,43.4,75,51,30,30.07,29.72,24,10,32,0.00
2013-3-16,76.7,63.9,49.7,53.9,46.9,39.2,67,55,43,29.78,29.66,27,9,27,0.00
2013-3-17,49.7,43.7,41.0,41.7,39.4,36.4,92,85,67,29.80,29.67,25,8,25,0.00
2013-3-18,61.7,47.3,40.1,40.6,36.1,25.2,97,70,30,30.03,29.67,21,5,21,0.00
2013-3-19,58.5,46.6,34.0,35.9,30.5,24.7,78,55,38,30.23,29.98,23,5,24,0.00
2013-3-20,53.1,42.9,31.0,34.6,27.5,23.0,86,57,34,30.37,30.06,24,5,24,0.00
2013-3-21,44.7,39.7,38.0,36.9,29.3,22.2,83,67,46,30.06,29.69,27,11,27,0.17
2013-3-22,45.9,40.7,36.7,38.3,36.3,33.6,92,84,73,29.90,29.73,17,8,17,0.05
2013-3-23,42.7,40.7,38.1,40.7,38.2,35.7,94,91,82,29.90,29.71,22,7,22,0.06
2013-3-24,41.4,35.0,28.7,36.7,26.6,19.1,93,73,47,30.21,29.76,33,13,33,0.01
2013-3-25,40.4,32.8,26.4,22.4,19.9,17.0,79,60,41,30.40,30.18,30,9,30,0.00
2013-3-26,52.4,36.5,21.9,25.7,20.8,15.5,79,56,31,30.48,30.28,16,2,16,0.00
2013-3-27,67.2,47.0,32.1,37.6,28.8,22.8,69,51,33,30.29,30.06,28,7,29,0.00
2013-3-28,74.0,59.9,46.7,52.2,43.3,30.2,66,54,42,30.15,30.02,24,8,24,0.00
2013-3-29,72.0,62.5,56.3,59.4,55.2,51.1,92,77,62,30.09,30.00,20,7,20,0.04
2013-3-30,78.0,64.5,56.1,61.2,55.9,50.9,92,75,53,30.03,29.78,22,8,22,0.01
2013-3-31,70.6,60.9,51.9,55.9,47.1,41.3,92,63,36,29.97,29.82,27,6,34,0.00
2013-4-1,61.3,50.5,41.5,44.8,40.7,34.0,87,70,50,30.12,29.93,23,8,23,0.05
2013-4-2,43.6,40.2,37.9,38.6,35.9,31.4,93,85,64,30.20,30.06,24,13,24,0.90
2013-4-3,41.9,39.2,36.6,37.8,35.5,32.7,93,87,70,30.23,30.13,21,6,22,1.05
2013-4-4,58.5,46.7,37.9,41.3,37.5,34.0,94,74,42,30.19,30.08,16,4,16,0.21
2013-4-5,69.6,54.2,35.7,46.0,41.4,32.8,92,65,39,30.20,29.92,29,5,29,0.00
2013-4-6,76.0,65.2,56.3,53.5,49.7,45.4,71,58,43,29.92,29.74,36,12,36,0.00
2013-4-7,65.7,62.0,55.9,58.9,56.0,51.5,90,81,71,29.84,29.66,26,7,26,0.00
2013-4-8,74.7,68.2,62.9,62.6,59.9,57.0,89,75,64,29.70,29.58,32,11,32,0.00
2013-4-9,80.0,71.2,43.4,64.5,60.5,37.6,81,69,57,29.78,29.58,29,13,31,0.00
2013-4-10,42.9,37.7,35.3,38.9,34.2,30.3,92,87,81,29.98,29.71,25,11,26,0.47
2013-4-11,55.6,42.4,30.8,35.6,30.7,26.5,86,65,41,29.96,29.77,18,6,18,0.00
2013-4-12,63.4,48.6,36.8,39.4,34.0,30.8,84,60,34,30.02,29.82,17,3,18,0.00
2013-4-13,74.8,58.8,46.1,52.2,44.7,38.0,87,62,37,30.03,29.69,28,8,29,0.08
2013-4-14,79.8,69.0,57.6,58.6,51.8,45.8,71,55,43,29.70,29.44,36,12,36,0.00
2013-4-15,75.5,63.5,54.1,58.8,48.3,38.4,76,58,47,29.80,29.59,24,10,24,0.00
2013-4-16,60.4,53.7,50.2,52.6,47.4,42.9,88,79,71,29.94,29.77,19,3,19,0.00
2013-4-17,81.0,68.9,50.5,68.8,61.1,46.8,94,77,62,29.89,29.45,33,9,34,0.46
2013-4-18,65.5,45.4,40.1,63.3,38.6,26.8,93,78,58,30.09,29.45,30,6,30,3.11
2013-4-19,61.8,44.2,32.5,36.7,29.9,26.2,81,59,33,30.17,30.03,14,2,14,0.00
2013-4-20,71.2,56.7,38.6,40.9,37.3,33.1,88,51,27,30.14,29.99,1,0,1,0.00
2013-4-21,70.4,60.3,52.2,46.7,43.1,40.0,71,54,38,30.17,30.04,0,0,0,0.03
2013-4-22,76.0,63.2,48.7,56.5,48.1,40.8,78,59,45,30.10,29.79,24,4,26,0.00
2013-4-23,67.4,47.2,36.5,54.3,42.2,32.7,92,84,55,30.19,29.74,21,2,21,0.08
2013-4-24,57.7,44.8,32.0,33.7,30.5,26.9,88,60,33,30.32,30.17,5,0,5,0.00
2013-4-25,69.9,52.7,36.2,41.9,35.3,30.6,83,56,26,30.35,30.14,12,3,18,0.00
2013-4-26,60.4,56.0,52.9,51.4,46.6,40.8,93,73,51,30.16,30.00,24,9,24,0.22
2013-4-27,57.7,54.6,52.1,53.2,51.2,50.4,94,88,78,30.07,29.92,25,1,25,0.04
2013-4-28,80.9,63.8,48.7,60.6,53.8,46.2,93,72,41,30.01,29.79,16,3,16,0.00
2013-4-29,86.5,73.4,60.4,63.2,58.2,52.0,88,62,36,29.81,29.66,29,10,29,0.00
2013-4-30,84.0,72.4,60.4,61.5,57.1,53.8,83,61,36,29.76,29.67,29,8,29,0.00
2013-5-1,81.6,72.3,62.7,66.9,61.9,57.0,87,71,53,29.99,29.75,22,8,22,0.00
2013-5-2,64.5,43.6,36.8,57.1,38.6,33.8,90,83,74,30.36,30.00,31,13,31,0.26
2013-5-3,60.0,47.2,34.4,35.9,32.4,29.1,89,60,33,30.35,29.96,34,10,34,0.00
2013-5-4,46.9,43.4,39.9,42.8,38.2,32.1,88,82,63,30.04,29.89,22,2,22,0.05
2013-5-5,58.8,50.7,43.3,50.8,45.8,40.7,93,84,71,30.13,30.03,1,0,1,0.01
2013-5-6,68.3,55.2,44.6,56.7,49.7,42.4,94,83,64,30.11,29.98,0,0,1,0.00
2013-5-7,77.1,62.0,48.2,58.3,51.4,46.0,95,72,40,30.07,29.91,14,1,14,0.01
2013-5-8,83.7,70.9,59.8,62.4,55.7,51.1,87,60,35,29.95,29.80,26,4,26,0.36
2013-5-9,73.3,64.4,57.7,64.4,60.8,54.4,94,89,70,29.92,29.81,1,0,2,0.64
2013-5-10,73.0,64.5,57.3,61.8,58.0,51.8,95,80,56,30.03,29.87,5,0,5,0.06
2013-5-11,76.4,62.7,50.3,61.3,50.6,40.1,93,68,38,30.19,30.03,3,0,3,0.03
2013-5-12,70.4,57.7,41.7,47.1,42.3,37.8,90,59,36,30.25,30.08,9,0,11,0.00
2013-5-13,87.2,71.2,54.0,65.2,52.7,43.7,72,53,37,30.10,29.95,24,4,24,0.00
2013-5-14,87.5,73.7,61.7,63.6,54.8,49.4,66,53,35,29.99,29.85,25,8,25,0.00
2013-5-15,72.5,68.1,61.5,67.1,61.2,53.9,93,80,54,29.91,29.72,20,5,20,0.51
2013-5-16,76.0,65.2,61.3,65.7,61.5,59.0,96,89,65,29.82,29.74,10,0,10,0.05
2013-5-17,77.7,68.3,56.9,70.8,64.7,55.2,95,88,77,29.86,29.79,13,2,13,0.01
2013-5-18,88.0,77.6,69.7,76.6,71.3,67.6,94,82,64,29.82,29.66,26,3,26,0.01
2013-5-19,82.2,75.3,65.4,71.3,67.6,62.0,91,77,61,29.81,29.48,34,10,34,0.26
2013-5-20,83.4,75.3,70.6,73.5,68.6,60.0,91,80,68,29.71,29.55,29,10,29,0.00
2013-5-21,70.5,62.0,56.9,61.6,58.0,54.6,93,87,70,29.87,29.58,32,5,32,0.73
2013-5-22,79.6,65.5,52.8,63.6,56.8,51.1,95,76,49,29.88,29.76,14,3,16,0.01
2013-5-23,66.2,61.7,59.0,61.6,58.3,56.0,93,89,82,30.09,29.88,19,3,20,0.18
2013-5-24,78.0,67.9,57.1,68.9,62.0,55.1,94,82,71,30.16,30.05,20,7,20,0.01
2013-5-25,80.2,69.1,62.5,67.0,62.3,58.9,89,80,62,30.13,30.07,22,7,22,0.00
2013-5-26,83.6,75.0,67.2,71.9,67.3,63.8,91,78,63,30.02,29.86,26,9,26,0.00
2013-5-27,82.3,76.7,71.1,71.0,68.4,64.9,89,76,65,29.89,29.65,34,13,34,0.00
2013-5-28,81.9,77.1,72.1,69.1,67.4,65.7,83,72,62,29.75,29.65,37,12,37,0.00
2013-5-29,77.9,74.2,66.7,69.7,67.0,62.0,89,78,72,29.76,29.55,40,12,40,0.14
2013-5-30,84.2,72.6,64.1,73.9,67.6,61.1,91,85,70,29.69,29.57,20,0,21,0.20
2013-5-31,87.3,80.1,75.3,75.4,72.3,69.3,87,78,66,29.70,29.51,43,6,43,0.01
2013-6-1,80.0,70.0,63.3,69.2,61.9,56.7,95,77,52,29.95,29.55,36,5,36,0.75
2013-6-2,73.3,64.0,56.7,59.0,55.6,52.5,88,75,58,30.05,29.94,20,4,20,0.00
2013-6-3,81.1,67.1,51.4,66.8,59.8,49.3,94,79,59,29.99,29.79,14,1,14,0.00
2013-6-4,81.7,72.7,65.2,71.4,66.5,62.9,93,82,63,29.94,29.76,32,6,32,0.50
2013-6-5,81.2,72.3,64.5,69.2,66.4,61.7,94,83,65,29.94,29.79,8,0,15,1.34
2013-6-6,76.7,69.2,62.9,65.4,60.5,55.4,93,75,50,29.91,29.84,16,3,16,0.00
2013-6-7,80.0,69.1,56.3,62.5,57.4,52.9,92,69,44,29.96,29.85,14,1,14,0.00
2013-6-8,83.5,71.8,60.1,65.6,60.4,56.0,88,69,49,29.88,29.72,22,0,22,0.00
2013-6-9,88.8,77.2,66.7,67.4,62.5,57.6,83,63,37,29.85,29.72,6,0,6,0.00
2013-6-10,93.0,80.3,67.5,72.0,67.9,60.8,89,68,45,29.87,29.77,21,6,21,0.00
2013-6-11,92.8,83.0,71.5,74.3,70.0,65.4,82,66,49,29.90,29.80,25,8,25,0.00
2013-6-12,92.9,83.5,75.3,74.3,71.5,69.1,84,68,50,29.90,29.81,30,11,30,0.00
2013-6-13,93.5,82.1,72.4,76.8,72.9,68.6,90,75,56,29.94,29.83,11,3,11,0.00
2013-6-14,85.2,74.8,70.6,76.3,70.4,67.4,91,86,74,29.92,29.85,14,2,14,0.00
2013-6-15,87.1,78.0,73.1,76.2,72.4,69.1,92,83,63,29.93,29.85,7,0,8,0.04
2013-6-16,93.3,76.8,69.5,76.9,70.7,64.2,95,83,55,29.93,29.79,18,1,18,0.01
2013-6-17,71.8,68.3,66.0,67.2,65.2,63.6,94,90,80,29.90,29.80,1,0,1,0.60
2013-6-18,86.5,75.2,65.9,71.1,66.6,61.9,94,77,45,29.98,29.87,10,2,13,0.01
2013-6-19,85.5,76.0,63.6,70.9,67.3,61.2,94,76,56,29.98,29.86,19,4,19,0.00
2013-6-20,91.7,81.5,70.9,77.6,72.3,67.2,90,75,58,29.95,29.84,25,8,25,0.00
2013-6-21,82.1,77.5,75.4,72.8,71.3,70.6,85,81,73,29.95,29.90,19,8,19,0.00
2013-6-22,91.8,82.8,75.5,72.6,69.7,66.3,80,66,47,29.94,29.80,24,8,24,0.00
2013-6-23,92.0,83.3,75.9,72.6,70.7,68.6,83,67,48,29.87,29.79,27,10,27,0.00
2013-6-24,91.5,82.6,74.9,72.5,70.3,67.3,84,68,47,29.94,29.81,24,9,26,0.00
2013-6-25,79.3,78.2,77.4,70.2,69.8,69.5,78,76,73,29.84,29.82,15,7,15,0.00
2013-6-26,94.5,85.3,77.5,78.0,73.1,67.4,81,68,57,29.83,29.73,16,8,26,0.00
2013-6-27,98.4,86.7,74.8,79.5,74.5,64.2,89,69,51,29.90,29.75,28,4,28,0.00
2013-6-28,95.5,85.0,75.0,72.6,67.9,63.0,79,58,38,29.89,29.73,19,4,19,0.00
2013-6-29,89.5,77.2,66.3,64.9,61.1,56.6,85,60,35,29.86,29.79,24,4,24,0.00
2013-6-30,82.6,74.3,64.7,59.1,56.8,54.9,77,56,42,29.93,29.80,15,5,28,0.00
2013-7-1,84.0,73.3,62.1,60.6,55.7,50.0,83,56,36,30.01,29.93,12,5,21,0.00
2013-7-2,85.0,71.6,56.2,59.4,54.7,51.4,87,58,35,30.05,29.96,10,3,19,0.00
2013-7-3,86.8,72.2,54.7,60.1,55.0,50.9,88,58,32,30.05,29.92,9,2,14,0.00
2013-7-4,90.2,75.7,60.3,66.2,60.9,55.0,87,62,40,29.99,29.86,17,4,19,0.00
2013-7-5,90.5,78.2,62.9,66.8,62.8,58.0,85,61,39,29.95,29.82,18,4,19,0.00
2013-7-6,89.6,80.1,70.7,68.2,64.8,60.5,73,60,48,29.91,29.83,15,5,22,0.00
2013-7-7,95.1,83.1,71.6,71.6,67.3,62.6,77,60,41,29.95,29.86,19,5,19,0.00
2013-7-8,94.8,83.9,73.5,75.8,70.6,65.8,81,65,47,30.00,29.91,17,4,18,0.00
2013-7-9,98.4,86.9,74.9,74.9,71.3,68.8,82,61,44,29.98,29.86,20,8,21,0.00
2013-7-10,100.1,87.0,76.0,73.2,69.3,65.0,82,57,39,29.91,29.82,20,4,20,0.00
2013-7-11,98.3,83.2,72.7,76.9,72.6,66.1,91,72,44,29.91,29.81,13,2,20,0.00
2013-7-12,96.5,84.7,73.3,76.1,72.0,68.5,86,67,43,29.93,29.84,11,5,18,0.00
2013-7-13,96.8,84.6,73.7,71.5,67.9,63.0,80,59,41,29.95,29.83,18,6,18,0.00
2013-7-14,88.5,76.6,66.7,67.7,65.5,60.6,87,70,45,29.98,29.84,19,4,19,0.02
2013-7-15,75.5,69.1,64.3,68.9,65.4,60.6,95,88,76,30.12,29.95,22,4,23,0.92
2013-7-16,87.1,73.9,68.5,72.8,69.2,66.4,95,86,54,30.17,30.10,16,2,16,0.10
2013-7-17,90.3,81.0,71.2,74.7,71.7,69.0,93,75,54,30.22,30.10,17,2,17,0.00
2013-7-18,94.7,83.3,71.3,75.2,71.8,68.9,94,71,45,30.13,29.94,11,2,12,0.00
2013-7-19,96.2,83.9,72.5,74.9,71.4,68.8,89,69,45,29.97,29.82,19,4,19,0.00
2013-7-20,95.4,83.5,71.0,75.3,70.8,67.1,91,68,45,29.89,29.75,17,5,17,0.00
2013-7-21,91.3,77.2,72.2,78.4,71.5,67.9,94,83,61,29.86,29.73,18,5,18,0.26
2013-7-22,96.9,86.7,76.0,76.6,73.5,70.2,83,66,50,29.83,29.74,20,7,21,0.00
2013-7-23,99.7,88.7,77.0,78.0,74.0,67.0,81,63,45,29.87,29.69,40,6,40,0.00
2013-7-24,86.6,76.3,67.2,73.6,69.6,65.1,95,81,60,29.95,29.78,40,5,40,0.75
2013-7-25,87.4,78.2,70.3,74.5,71.5,68.1,94,81,60,30.02,29.92,12,1,12,0.06
2013-7-26,80.5,74.8,68.0,72.3,70.3,65.9,93,86,73,29.98,29.89,29,4,29,0.03
2013-7-27,84.0,73.0,66.7,71.6,66.8,63.8,95,83,53,30.02,29.89,12,1,12,0.03
2013-7-28,85.7,75.1,65.1,72.1,67.0,62.1,92,77,60,29.96,29.86,17,4,17,0.01
2013-7-29,88.5,76.8,71.7,76.2,70.5,67.9,89,81,62,29.94,29.89,23,2,23,0.01
2013-7-30,91.3,79.1,70.2,78.5,72.8,67.7,95,82,60,29.97,29.86,15,1,15,0.83
2013-7-31,90.5,81.5,74.4,77.7,74.3,71.8,95,80,59,30.00,29.91,15,2,15,0.00
2013-8-1,90.8,80.8,70.3,75.0,70.5,64.7,93,73,47,30.02,29.87,13,3,13,0.00
2013-8-2,94.7,84.2,76.1,79.2,74.7,70.1,87,74,59,29.89,29.75,19,5,19,0.00
2013-8-3,87.1,82.0,77.7,76.7,72.6,69.7,84,74,61,29.97,29.79,28,7,28,0.00
2013-8-4,89.0,81.7,76.4,80.2,75.4,71.8,91,82,68,30.00,29.87,16,5,16,0.00
2013-8-5,97.9,84.9,75.7,77.9,74.6,72.4,91,73,50,29.90,29.73,21,6,22,0.00
2013-8-6,91.1,82.4,75.8,74.1,70.0,68.0,80,67,57,29.78,29.75,21,4,21,0.00
2013-8-7,94.8,86.0,77.7,78.9,73.7,69.4,83,68,53,29.80,29.72,16,4,17,0.00
2013-8-8,84.2,78.2,71.1,76.7,73.0,68.2,92,84,73,29.87,29.75,12,0,12,0.43
2013-8-9,84.8,76.6,69.5,75.1,71.6,67.1,95,85,69,29.99,29.81,13,2,13,0.80
2013-8-10,84.7,75.1,67.4,72.8,69.1,64.3,93,82,65,30.06,29.96,13,3,13,0.04
2013-8-11,90.6,79.1,70.7,76.5,72.0,68.2,94,80,57,30.03,29.93,11,1,12,0.00
2013-8-12,84.7,77.2,72.5,76.9,73.5,69.6,94,89,73,30.03,29.87,19,2,19,0.00
2013-8-13,81.0,73.0,68.6,74.9,70.1,66.1,96,91,77,30.00,29.89,17,2,21,0.00
2013-8-14,69.9,69.2,67.9,67.6,67.0,65.5,93,93,92,30.00,29.98,6,0,6,0.00
2013-8-15,83.3,71.6,63.3,68.0,63.5,59.9,91,77,54,30.05,29.93,9,3,19,0.20
2013-8-16,80.4,71.1,63.6,67.6,64.7,61.8,95,81,61,30.05,29.90,11,2,16,0.55
2013-8-17,79.4,70.7,62.3,66.1,63.1,60.2,95,79,53,30.09,29.99,9,2,14,0.00
2013-8-18,84.7,73.1,61.0,69.4,64.2,59.0,94,76,52,30.08,29.97,11,1,11,0.01
2013-8-19,76.3,67.4,64.7,69.6,64.3,62.2,93,90,77,30.05,29.99,13,1,13,0.00
2013-8-20,90.1,77.5,66.9,72.5,67.1,62.2,90,72,47,30.01,29.92,9,3,15,0.00
2013-8-21,92.5,79.8,66.2,74.8,68.1,63.5,93,70,42,30.02,29.94,9,3,15,0.00
2013-8-22,91.9,80.0,67.8,74.5,70.2,65.3,94,74,51,30.03,29.91,13,2,13,0.00
2013-8-23,88.3,79.6,74.4,76.5,71.2,67.8,87,76,65,29.99,29.89,13,3,13,0.13
2013-8-24,91.7,81.0,71.3,77.2,72.0,68.4,92,75,52,30.05,29.94,14,3,14,0.00
2013-8-25,92.3,82.3,72.7,76.8,72.8,69.2,91,74,53,30.12,30.02,13,3,13,0.00
2013-8-26,91.8,81.7,71.7,75.9,71.4,66.6,90,72,52,30.12,30.00,15,3,16,0.00
2013-8-27,91.0,80.1,70.3,74.0,69.5,64.2,86,71,54,30.05,29.94,17,4,17,0.00
2013-8-28,93.3,81.5,70.9,75.6,71.5,67.9,92,74,52,30.01,29.93,21,4,21,0.00
2013-8-29,97.4,84.7,73.4,77.3,72.1,70.1,91,68,43,29.99,29.89,15,2,15,0.00
2013-8-30,98.5,85.6,74.8,77.1,71.6,68.1,85,65,41,29.93,29.78,15,3,15,0.00
2013-8-31,99.8,87.3,76.9,78.3,71.5,66.9,72,61,42,29.82,29.70,16,4,16,0.00
2013-9-1,94.1,82.6,72.5,75.7,71.6,66.5,88,70,52,29.83,29.71,13,3,13,0.05
2013-9-2,88.5,78.5,68.1,72.6,65.5,60.8,90,67,41,29.95,29.83,18,4,18,0.00
2013-9-3,89.0,75.2,61.7,66.7,62.4,58.7,91,67,40,30.01,29.90,15,2,15,0.00
2013-9-4,93.7,77.1,61.4,71.9,65.3,58.1,91,69,45,30.07,29.97,9,1,13,0.00
2013-9-5,93.7,78.6,65.6,70.5,65.3,60.9,88,66,42,30.10,29.99,12,2,12,0.00
2013-9-6,94.5,80.5,68.3,70.9,66.0,61.2,82,63,42,30.06,29.91,13,3,13,0.00
2013-9-7,99.0,83.3,68.2,74.4,67.9,63.6,87,62,37,29.96,29.83,14,2,14,0.00
2013-9-8,97.5,82.6,71.2,72.9,68.5,64.5,83,65,38,29.91,29.80,17,2,17,0.00
2013-9-9,95.2,82.0,69.0,70.9,65.5,61.5,79,59,39,29.92,29.83,23,4,23,0.00
2013-9-10,95.1,80.9,70.8,69.6,65.5,61.9,77,61,35,30.03,29.89,17,4,21,0.00
2013-9-11,96.0,81.4,66.9,70.4,66.4,62.7,89,63,39,30.08,29.95,15,2,15,0.00
2013-9-12,94.8,76.2,70.1,71.6,68.1,65.9,90,77,43,30.03,29.93,26,2,26,0.18
2013-9-13,85.3,75.0,67.1,68.9,63.1,54.6,90,68,43,30.00,29.89,16,6,16,0.00
2013-9-14,86.2,72.6,59.8,64.8,59.1,55.0,86,64,46,30.00,29.88,16,4,16,0.00
2013-9-15,91.6,76.9,62.9,69.9,62.3,55.4,81,62,46,29.98,29.90,19,4,19,0.00
2013-9-16,87.2,77.3,71.9,69.0,67.4,65.7,85,73,52,30.11,29.95,18,5,18,0.00
2013-9-17,85.0,73.4,67.4,70.5,67.2,65.3,93,82,59,30.07,29.89,29,3,29,1.05
2013-9-18,92.1,79.0,69.3,74.9,70.4,66.9,94,76,52,29.94,29.81,22,4,22,0.01
2013-9-19,90.1,78.3,72.1,74.5,70.4,67.1,89,77,56,29.91,29.77,23,4,23,0.15
2013-9-20,71.9,67.9,59.8,68.8,62.6,54.9,95,84,62,29.94,29.87,20,3,20,0.33
2013-9-21,78.8,64.5,51.1,58.5,53.9,48.9,94,71,43,30.00,29.86,13,2,13,0.00
2013-9-22,79.9,65.6,51.5,57.8,52.4,49.0,94,66,36,29.93,29.78,16,2,16,0.01
2013-9-23,81.3,68.3,54.5,58.5,54.9,50.5,88,64,42,29.84,29.71,12,5,20,0.00
2013-9-24,82.4,69.1,57.1,58.5,55.8,52.9,87,65,42,29.86,29.80,15,5,23,0.00
2013-9-25,86.1,69.4,53.9,63.1,57.8,51.3,94,70,41,29.87,29.73,5,1,10,0.00
2013-9-26,92.6,76.3,60.6,65.3,60.5,56.2,87,61,38,29.84,29.74,20,6,21,0.00
2013-9-27,89.7,77.3,65.3,66.6,61.7,59.0,82,60,36,29.90,29.76,25,8,25,0.00
2013-9-28,78.7,68.1,56.9,69.2,61.7,53.9,93,81,63,30.04,29.77,24,6,24,1.06
2013-9-29,75.1,61.4,49.0,60.0,52.9,47.1,95,76,44,30.06,29.89,14,2,14,0.01
2013-9-30,82.6,65.6,48.4,62.9,55.4,46.5,95,73,43,29.91,29.77,14,2,14,0.01
2013-10-1,87.2,74.5,64.0,71.4,65.9,56.9,95,77,47,29.90,29.80,19,5,19,0.00
2013-10-2,84.8,76.3,69.3,71.9,69.3,67.1,94,80,61,29.93,29.79,20,6,20,0.00
2013-10-3,88.1,77.2,69.5,73.6,69.1,66.4,92,77,57,29.84,29.69,22,8,26,0.00
2013-10-4,87.1,78.5,72.6,70.5,68.8,67.3,89,73,56,29.82,29.71,32,10,32,0.00
2013-10-5,75.1,57.9,48.6,68.5,48.1,41.1,92,71,42,30.06,29.80,24,6,24,0.31
2013-10-6,67.8,54.6,44.0,46.1,41.9,37.4,86,65,42,30.04,29.97,24,6,24,0.00
2013-10-7,73.5,56.8,40.7,48.2,42.2,37.1,91,62,32,30.16,30.02,13,2,13,0.00
2013-10-8,75.3,60.9,46.9,54.0,49.2,43.1,88,67,46,30.10,29.97,18,4,18,0.00
2013-10-9,79.0,63.8,49.6,59.2,53.0,45.8,90,70,48,30.05,29.94,18,4,18,0.00
2013-10-10,80.3,66.8,55.0,62.8,56.4,50.6,88,71,49,30.01,29.82,22,5,22,0.00
2013-10-11,82.2,71.1,61.7,68.4,63.2,55.9,89,77,60,29.83,29.73,31,9,31,0.00
2013-10-12,74.0,67.2,58.7,67.0,58.1,51.5,92,73,55,30.08,29.79,21,7,21,0.00
2013-10-13,74.8,67.5,62.1,64.7,58.4,52.3,79,73,68,30.23,30.08,14,5,14,0.00
2013-10-14,68.1,62.8,57.7,63.0,58.5,53.0,94,86,72,30.14,29.86,20,7,20,0.99
2013-10-15,67.6,58.9,52.9,65.8,53.1,45.6,94,81,64,30.06,29.83,21,5,21,0.12
2013-10-16,61.5,51.8,43.4,47.3,42.2,38.9,86,71,52,30.14,30.01,19,4,19,0.00
2013-10-17,68.3,51.9,38.7,49.6,43.1,36.4,94,75,46,30.07,29.93,15,2,15,0.01
2013-10-18,55.7,47.1,40.2,47.9,43.1,38.0,92,86,72,30.15,29.96,21,6,21,0.15
2013-10-19,64.6,47.2,32.0,42.7,37.1,29.9,93,71,38,30.16,30.00,12,4,15,0.00
2013-10-20,70.1,55.6,42.8,44.8,41.1,37.3,82,61,35,30.00,29.81,25,6,25,0.00
2013-10-21,60.0,51.1,39.2,47.7,42.8,35.4,89,74,48,30.09,29.89,23,4,23,0.04
2013-10-22,72.6,51.6,36.3,47.8,41.1,33.8,92,71,38,30.09,29.96,22,4,22,0.01
2013-10-23,68.8,53.7,39.1,48.1,43.0,35.4,89,69,44,30.16,29.96,15,2,15,0.00
2013-10-24,57.2,48.6,40.8,44.5,38.5,33.6,92,70,46,30.38,30.04,23,5,23,0.00
2013-10-25,56.6,45.8,33.1,40.3,35.3,29.6,89,68,47,30.46,30.21,18,4,18,0.00
2013-10-26,66.1,54.1,46.3,55.4,47.9,39.7,93,80,66,30.22,30.05,18,4,18,0.01
2013-10-27,70.7,53.7,40.4,51.9,42.4,35.5,93,69,29,30.09,29.94,12,2,12,0.00
2013-10-28,70.5,61.3,51.8,59.0,55.5,48.7,93,82,62,30.10,29.97,17,6,17,0.00
2013-10-29,74.8,69.1,63.2,67.6,64.1,58.2,89,84,78,30.03,29.87,22,9,22,0.01
2013-10-30,71.2,67.7,63.2,66.7,64.2,61.0,95,88,85,29.94,29.69,31,9,31,2.75
2013-10-31,68.0,64.9,63.8,64.3,60.7,49.0,94,87,52,29.70,29.52,32,9,32,0.27
2013-11-1,71.2,55.7,42.6,49.7,43.0,39.3,91,66,36,30.03,29.76,17,5,27,0.00
2013-11-2,61.8,50.4,39.8,41.2,36.2,32.3,83,61,34,30.25,30.03,15,5,26,0.00
2013-11-3,62.9,50.5,38.4,42.3,38.2,33.5,85,65,43,30.20,29.93,27,8,27,0.00
2013-11-4,65.0,57.3,51.1,54.4,49.8,42.1,88,76,62,30.06,29.91,29,10,29,0.05
2013-11-5,64.2,59.6,56.2,61.9,57.7,53.8,95,93,87,30.05,29.86,25,9,25,0.85
2013-11-6,59.9,45.6,35.5,57.0,39.0,32.4,92,78,57,30.36,29.89,24,8,24,0.27
2013-11-7,66.0,46.7,31.1,43.5,35.1,29.0,94,69,32,30.46,30.32,13,1,13,0.01
2013-11-8,67.4,53.4,39.3,42.2,37.3,33.8,82,58,33,30.32,30.02,28,9,34,0.00
2013-11-9,68.3,56.7,49.0,47.5,43.8,40.6,83,63,41,30.23,30.02,22,5,22,0.00
2013-11-10,69.8,56.0,45.0,50.3,46.3,42.1,92,72,47,30.34,30.22,10,1,10,0.00
2013-11-11,72.8,57.3,43.5,56.2,48.8,37.6,89,74,53,30.42,30.12,29,6,29,0.00
2013-11-12,43.3,33.8,25.3,37.6,21.1,16.6,80,60,40,30.76,30.41,28,10,28,0.00
2013-11-13,51.4,35.1,18.8,27.1,21.5,15.3,89,61,33,30.72,30.32,22,5,22,0.00
2013-11-14,55.0,43.0,31.0,35.0,27.5,21.5,71,55,32,30.32,30.00,19,8,24,0.00
2013-11-15,62.2,51.8,42.3,52.4,44.9,34.4,90,78,61,30.01,29.77,22,8,22,0.15
2013-11-16,74.5,66.2,55.4,64.3,59.2,52.5,90,79,61,29.77,29.51,37,17,37,0.00
2013-11-17,73.5,65.8,49.0,64.7,45.3,23.3,85,52,25,30.08,29.49,33,9,33,0.00
2013-11-18,64.0,50.3,37.6,39.3,31.5,23.5,76,50,29,30.24,30.07,17,4,17,0.00
2013-11-19,58.0,53.6,48.9,35.8,32.2,29.4,57,44,35,30.19,29.97,21,8,21,0.00
2013-11-20,60.2,55.2,48.6,45.7,37.4,29.3,61,51,44,29.98,29.82,31,10,31,0.00
2013-11-21,62.4,50.5,33.2,56.2,46.0,30.7,91,85,57,30.33,29.89,29,8,29,0.05
2013-11-22,33.1,30.9,29.4,30.8,27.0,24.6,91,86,77,30.57,30.33,20,8,26,0.03
2013-11-23,39.8,33.1,27.2,27.1,22.3,12.8,86,66,38,30.68,30.55,23,6,23,0.01
2013-11-24,29.8,26.3,23.2,18.5,15.3,12.2,69,63,54,30.69,30.37,19,4,19,0.00
2013-11-25,29.9,29.6,29.5,20.5,19.6,18.5,68,66,63,30.37,30.32,10,2,10,0.00
2013-11-26,47.8,36.6,27.5,31.1,26.7,14.3,89,69,45,30.41,30.18,22,7,27,0.00
2013-11-27,40.2,28.7,18.1,15.1,13.0,10.8,76,53,35,30.49,30.32,18,3,18,0.00
2013-11-28,59.0,39.6,26.4,33.7,23.9,14.8,66,54,36,30.43,30.29,20,5,20,0.00
2013-11-29,56.6,41.9,26.5,31.9,26.3,20.6,82,57,30,30.49,30.28,20,5,20,0.00
2013-11-30,61.9,48.6,38.6,47.3,39.8,30.0,90,72,58,30.29,30.08,22,7,22,0.00
2013-12-1,57.1,48.3,38.5,52.5,45.6,36.4,94,91,80,30.09,29.87,5,1,6,0.01
2013-12-2,60.5,49.9,43.4,49.3,46.0,41.0,94,87,59,29.87,29.63,14,2,14,0.00
2013-12-3,65.0,51.9,45.0,55.7,47.8,43.0,95,87,63,29.63,29.47,12,5,15,0.01
2013-12-4,48.2,40.8,29.3,46.3,36.1,21.5,94,83,72,30.02,29.47,23,8,23,0.01
2013-12-5,29.4,24.0,19.7,21.8,16.3,12.2,87,72,59,30.33,30.02,21,3,22,0.00
2013-12-6,20.7,17.7,13.1,16.7,13.5,5.3,89,83,70,30.61,30.27,14,1,14,0.00
2013-12-7,20.3,14.7,6.8,12.7,6.7,1.1,78,70,64,30.68,30.33,13,2,13,0.00
2013-12-8,29.5,25.5,20.3,26.2,22.0,12.7,92,86,72,30.33,30.02,0,0,0,0.00
2013-12-9,25.6,22.8,18.9,22.1,17.1,14.3,89,79,68,30.44,30.21,0,0,0,0.00
2013-12-10,37.1,23.6,9.4,21.6,15.2,6.1,88,72,50,30.50,30.27,0,0,0,0.01
2013-12-11,37.1,27.0,18.0,26.9,19.8,14.5,92,74,58,30.63,30.28,0,0,0,0.00
2013-12-12,41.3,29.2,14.2,28.7,21.3,10.5,88,73,57,30.63,30.23,0,0,0,0.00
2013-12-13,41.2,37.8,35.2,37.3,33.0,27.1,93,83,67,30.24,29.80,0,0,0,0.57
2013-12-14,39.5,34.4,24.9,37.9,29.6,20.7,94,83,67,30.28,29.83,0,0,0,0.01
2013-12-15,60.1,37.5,21.0,35.8,25.9,18.0,95,68,34,30.29,30.12,0,0,0,0.00
2013-12-16,69.2,48.2,35.1,37.6,32.1,27.7,78,57,26,30.15,30.03,0,0,0,0.00
2013-12-17,60.2,44.7,34.1,35.8,31.2,27.5,83,62,33,30.30,30.12,0,0,0,0.00
2013-12-18,68.3,50.7,32.8,45.1,35.6,26.0,80,59,37,30.25,29.87,0,0,0,0.00
2013-12-19,63.4,58.6,53.5,56.7,50.9,44.2,82,76,62,29.87,29.62,0,0,0,0.00
2013-12-20,62.1,37.5,28.2,56.8,32.8,23.0,90,83,74,29.94,29.63,0,0,0,0.01
2013-12-21,31.6,30.6,29.0,29.8,28.6,26.4,93,92,90,29.85,29.50,0,0,0,0.00
2013-12-22,30.9,27.9,26.2,29.1,25.0,22.7,93,89,86,30.41,29.77,0,0,0,0.00
2013-12-23,27.4,24.6,19.0,24.0,21.3,15.8,95,87,85,30.63,30.40,0,0,0,0.00
2013-12-24,43.2,24.6,14.8,35.4,21.0,11.9,99,86,66,30.61,30.23,0,0,0,0.25
2013-12-25,38.0,30.8,25.2,33.4,27.8,22.8,93,88,80,30.43,30.27,0,0,0,0.00
2013-12-26,52.8,35.3,20.8,38.4,27.5,18.6,94,76,46,30.42,30.29,0,0,0,0.01
2013-12-27,60.1,42.4,29.3,35.3,28.8,23.4,81,61,35,30.41,30.29,0,0,0,0.00
2013-12-28,59.1,44.3,31.4,39.9,33.2,26.2,86,67,42,30.29,29.90,0,0,0,0.00
2013-12-29,43.2,31.0,22.4,38.7,22.8,9.0,92,72,57,30.31,29.91,0,0,0,0.00
2013-12-30,39.2,25.2,13.3,18.5,12.1,5.4,74,58,42,30.40,30.26,0,0,0,0.00
2013-12-31,55.9,37.0,19.7,28.5,21.7,13.9,84,57,28,30.40,30.15,0,0,0,0.00
2014-1-1,53.4,39.0,19.7,35.9,27.4,13.4,77,64,51,30.27,29.86,0,0,0,0.00
2014-1-2,34.2,21.6,12.3,17.7,12.2,6.8,80,68,50,30.51,30.27,18,1,18,0.00